SWA2499 KISP-KPBI
Flight info
| Callsign | SWA2499 |
|---|---|
| Flight time | 2h 35m |
| Altitude | 38000 |
| Route | BEADS EMJAY Q167 ZJAAY Q97 KENLL CPTAN3 |
| Aircraft | B738/M-SDE2E3FGHIRWXY/LB1 |
Departure
| Time | 2026-05-04 16:00 |
|---|---|
| Airport | Long Island MacArthur Airport (KISP) |
Arrival
| Time | 2026-05-04 18:36 |
|---|---|
| Airport | Palm Beach International Airport (KPBI) |
| Time | Latitude | Longitude | Altitude | Speed | Heading |
|---|---|---|---|---|---|
| 2026-05-04 15:27 | 40.79007 | -73.09445 | 94 ft | 0 kts | 225° |
| 2026-05-04 15:51 | 40.79013 | -73.09437 | 95 ft | 4 kts | 228° |
| 2026-05-04 15:52 | 40.79028 | -73.09408 | 93 ft | 4 kts | 259° |
| 2026-05-04 15:52 | 40.79025 | -73.09378 | 93 ft | 3 kts | 313° |
| 2026-05-04 15:52 | 40.79023 | -73.09376 | 93 ft | 0 kts | 315° |
| 2026-05-04 15:54 | 40.79029 | -73.09384 | 95 ft | 3 kts | 314° |
| 2026-05-04 15:55 | 40.79051 | -73.09414 | 95 ft | 6 kts | 314° |
| 2026-05-04 15:55 | 40.79083 | -73.09457 | 94 ft | 7 kts | 314° |
| 2026-05-04 15:55 | 40.79117 | -73.09500 | 94 ft | 7 kts | 321° |
| 2026-05-04 15:55 | 40.79160 | -73.09502 | 94 ft | 7 kts | 32° |
| 2026-05-04 15:56 | 40.79206 | -73.09456 | 94 ft | 11 kts | 19° |
| 2026-05-04 15:56 | 40.79293 | -73.09469 | 95 ft | 14 kts | 354° |
| 2026-05-04 15:56 | 40.79385 | -73.09470 | 96 ft | 13 kts | 0° |
| 2026-05-04 15:56 | 40.79472 | -73.09471 | 96 ft | 10 kts | 359° |
| 2026-05-04 15:57 | 40.79510 | -73.09471 | 95 ft | 3 kts | 0° |
| 2026-05-04 15:57 | 40.79525 | -73.09471 | 94 ft | 2 kts | 0° |
| 2026-05-04 15:57 | 40.79550 | -73.09471 | 96 ft | 7 kts | 0° |
| 2026-05-04 15:57 | 40.79623 | -73.09470 | 95 ft | 12 kts | 360° |
| 2026-05-04 15:58 | 40.79706 | -73.09470 | 95 ft | 12 kts | 360° |
| 2026-05-04 15:58 | 40.79789 | -73.09471 | 95 ft | 12 kts | 359° |
| 2026-05-04 15:58 | 40.79869 | -73.09470 | 95 ft | 11 kts | 0° |
| 2026-05-04 15:58 | 40.79947 | -73.09470 | 95 ft | 11 kts | 360° |
| 2026-05-04 15:59 | 40.80023 | -73.09471 | 94 ft | 11 kts | 360° |
| 2026-05-04 15:59 | 40.80088 | -73.09432 | 95 ft | 10 kts | 46° |
| 2026-05-04 15:59 | 40.80149 | -73.09394 | 98 ft | 10 kts | 346° |
| 2026-05-04 15:59 | 40.80199 | -73.09445 | 99 ft | 7 kts | 316° |
| 2026-05-04 16:00 | 40.80185 | -73.09508 | 99 ft | 14 kts | 228° |
| 2026-05-04 16:00 | 40.79942 | -73.09827 | 98 ft | 89 kts | 225° |
| 2026-05-04 16:00 | 40.79339 | -73.10620 | 174 ft | 147 kts | 224° |
| 2026-05-04 16:00 | 40.78584 | -73.11586 | 903 ft | 153 kts | 226° |
| 2026-05-04 16:01 | 40.77844 | -73.12593 | 1897 ft | 156 kts | 226° |
| 2026-05-04 16:01 | 40.77033 | -73.13758 | 2369 ft | 185 kts | 227° |
| 2026-05-04 16:01 | 40.76091 | -73.15072 | 2741 ft | 206 kts | 227° |
| 2026-05-04 16:01 | 40.75072 | -73.16511 | 2968 ft | 224 kts | 227° |
| 2026-05-04 16:02 | 40.73978 | -73.18025 | 3465 ft | 233 kts | 225° |
| 2026-05-04 16:02 | 40.72538 | -73.19005 | 4505 ft | 242 kts | 194° |
| 2026-05-04 16:02 | 40.69102 | -73.19414 | 6443 ft | 254 kts | 191° |
| 2026-05-04 16:03 | 40.67340 | -73.19608 | 7295 ft | 259 kts | 191° |
| 2026-05-04 16:03 | 40.65518 | -73.19809 | 8167 ft | 265 kts | 190° |
| 2026-05-04 16:03 | 40.63652 | -73.20016 | 9036 ft | 271 kts | 190° |
| 2026-05-04 16:03 | 40.61771 | -73.20228 | 9899 ft | 277 kts | 189° |
| 2026-05-04 16:04 | 40.59807 | -73.20451 | 10497 ft | 292 kts | 189° |
| 2026-05-04 16:04 | 40.55370 | -73.20952 | 10924 ft | 344 kts | 189° |
| 2026-05-04 16:04 | 40.52963 | -73.21225 | 11490 ft | 354 kts | 188° |
| 2026-05-04 16:05 | 40.50473 | -73.21507 | 12275 ft | 359 kts | 188° |
| 2026-05-04 16:05 | 40.47998 | -73.21786 | 13078 ft | 363 kts | 188° |
| 2026-05-04 16:05 | 40.42886 | -73.22367 | 14542 ft | 372 kts | 189° |
| 2026-05-04 16:06 | 40.40311 | -73.22661 | 15218 ft | 377 kts | 189° |
| 2026-05-04 16:06 | 40.33206 | -73.23473 | 17008 ft | 390 kts | 189° |
| 2026-05-04 16:07 | 40.29593 | -73.23886 | 17846 ft | 396 kts | 189° |
| 2026-05-04 16:07 | 40.21199 | -73.24843 | 19634 ft | 408 kts | 189° |
| 2026-05-04 16:08 | 40.18383 | -73.25164 | 20199 ft | 412 kts | 189° |
| 2026-05-04 16:08 | 40.09811 | -73.26817 | 21810 ft | 414 kts | 206° |
| 2026-05-04 16:09 | 40.05043 | -73.30779 | 22911 ft | 409 kts | 225° |
| 2026-05-04 16:09 | 40.00706 | -73.35746 | 23766 ft | 419 kts | 225° |
| 2026-05-04 16:10 | 39.96295 | -73.40746 | 24685 ft | 423 kts | 225° |
| 2026-05-04 16:11 | 39.89563 | -73.48274 | 25992 ft | 428 kts | 224° |
| 2026-05-04 16:11 | 39.87283 | -73.50815 | 26380 ft | 431 kts | 224° |
| 2026-05-04 16:12 | 39.80395 | -73.58468 | 27506 ft | 438 kts | 224° |
| 2026-05-04 16:12 | 39.73354 | -73.66270 | 28541 ft | 445 kts | 225° |
| 2026-05-04 16:13 | 39.68640 | -73.71487 | 29162 ft | 450 kts | 225° |
| 2026-05-04 16:13 | 39.63875 | -73.76750 | 30186 ft | 445 kts | 225° |
| 2026-05-04 16:14 | 39.59196 | -73.81907 | 31010 ft | 442 kts | 225° |
| 2026-05-04 16:14 | 39.54506 | -73.87073 | 31786 ft | 440 kts | 225° |
| 2026-05-04 16:15 | 39.47556 | -73.94714 | 32980 ft | 435 kts | 225° |
| 2026-05-04 16:16 | 39.42970 | -73.99746 | 33745 ft | 433 kts | 224° |
| 2026-05-04 16:16 | 39.36098 | -74.07256 | 34591 ft | 432 kts | 224° |
| 2026-05-04 16:17 | 39.31522 | -74.12249 | 35246 ft | 428 kts | 224° |
| 2026-05-04 16:18 | 39.24719 | -74.19674 | 36045 ft | 427 kts | 224° |
| 2026-05-04 16:18 | 39.22449 | -74.22147 | 36319 ft | 425 kts | 224° |
| 2026-05-04 16:19 | 39.15667 | -74.29527 | 37119 ft | 423 kts | 224° |
| 2026-05-04 16:19 | 39.11222 | -74.34353 | 37705 ft | 420 kts | 224° |
| 2026-05-04 16:20 | 39.04497 | -74.41646 | 38047 ft | 424 kts | 224° |
| 2026-05-04 16:20 | 38.99979 | -74.46536 | 38047 ft | 421 kts | 224° |
| 2026-05-04 16:22 | 38.89064 | -74.58689 | 38051 ft | 412 kts | 226° |
| 2026-05-04 16:23 | 38.76418 | -74.73547 | 38049 ft | 413 kts | 226° |
| 2026-05-04 16:25 | 38.62982 | -74.87707 | 38050 ft | 421 kts | 223° |
| 2026-05-04 16:26 | 38.47226 | -75.04483 | 38058 ft | 422 kts | 225° |
| 2026-05-04 16:28 | 38.35422 | -75.15826 | 38050 ft | 425 kts | 221° |
| 2026-05-04 16:29 | 38.18868 | -75.31480 | 38035 ft | 423 kts | 221° |
| 2026-05-04 16:31 | 38.07130 | -75.42563 | 38047 ft | 422 kts | 221° |
| 2026-05-04 16:32 | 37.92640 | -75.55271 | 38048 ft | 422 kts | 219° |
| 2026-05-04 16:33 | 37.82973 | -75.63587 | 38054 ft | 423 kts | 217° |
| 2026-05-04 16:34 | 37.75365 | -75.69301 | 38051 ft | 424 kts | 216° |
| 2026-05-04 16:35 | 37.60142 | -75.80722 | 38060 ft | 425 kts | 216° |
| 2026-05-04 16:36 | 37.53385 | -75.85806 | 38063 ft | 425 kts | 218° |
| 2026-05-04 16:37 | 37.46137 | -75.92134 | 38061 ft | 423 kts | 221° |
| 2026-05-04 16:38 | 37.36538 | -76.00715 | 38066 ft | 424 kts | 220° |
| 2026-05-04 16:39 | 37.24484 | -76.11371 | 38061 ft | 424 kts | 220° |
| 2026-05-04 16:40 | 37.14857 | -76.19847 | 38064 ft | 424 kts | 220° |
| 2026-05-04 16:41 | 37.02829 | -76.30399 | 38065 ft | 423 kts | 220° |
| 2026-05-04 16:43 | 36.90790 | -76.40920 | 38091 ft | 421 kts | 220° |
| 2026-05-04 16:43 | 36.83568 | -76.47212 | 38085 ft | 421 kts | 220° |
| 2026-05-04 16:45 | 36.69217 | -76.59672 | 38074 ft | 419 kts | 220° |
| 2026-05-04 16:46 | 36.57263 | -76.70012 | 38076 ft | 418 kts | 220° |
| 2026-05-04 16:47 | 36.47721 | -76.78239 | 38221 ft | 417 kts | 221° |
| 2026-05-04 16:48 | 36.40638 | -76.84335 | 38992 ft | 413 kts | 220° |
| 2026-05-04 16:48 | 36.38270 | -76.86367 | 39118 ft | 414 kts | 220° |
| 2026-05-04 16:49 | 36.33560 | -76.90437 | 39409 ft | 415 kts | 221° |
| 2026-05-04 16:49 | 36.28835 | -76.94565 | 39727 ft | 414 kts | 221° |
| 2026-05-04 16:50 | 36.24128 | -76.98677 | 40082 ft | 411 kts | 221° |
| 2026-05-04 16:50 | 36.19447 | -77.02761 | 40079 ft | 415 kts | 221° |
| 2026-05-04 16:51 | 36.12403 | -77.08888 | 40082 ft | 411 kts | 221° |
| 2026-05-04 16:52 | 36.03104 | -77.16962 | 40086 ft | 406 kts | 221° |
| 2026-05-04 16:53 | 35.96173 | -77.22971 | 40092 ft | 404 kts | 221° |
| 2026-05-04 16:54 | 35.87182 | -77.31205 | 40093 ft | 401 kts | 224° |
| 2026-05-04 16:55 | 35.73987 | -77.43982 | 40085 ft | 404 kts | 223° |
| 2026-05-04 16:56 | 35.62885 | -77.54631 | 40085 ft | 406 kts | 223° |
| 2026-05-04 16:57 | 35.56178 | -77.61045 | 40085 ft | 407 kts | 223° |
| 2026-05-04 16:58 | 35.47240 | -77.69550 | 40108 ft | 407 kts | 223° |
| 2026-05-04 17:00 | 35.33820 | -77.82303 | 40125 ft | 407 kts | 223° |
| 2026-05-04 17:01 | 35.22641 | -77.92893 | 40124 ft | 406 kts | 223° |
| 2026-05-04 17:02 | 35.13712 | -78.01324 | 40103 ft | 405 kts | 223° |
| 2026-05-04 17:03 | 35.07028 | -78.07619 | 40110 ft | 405 kts | 223° |
| 2026-05-04 17:03 | 35.00349 | -78.13897 | 40112 ft | 405 kts | 223° |
| 2026-05-04 17:04 | 34.91385 | -78.22302 | 40090 ft | 406 kts | 223° |
| 2026-05-04 17:05 | 34.82465 | -78.30644 | 40114 ft | 406 kts | 223° |
| 2026-05-04 17:06 | 34.75725 | -78.36931 | 40110 ft | 406 kts | 223° |
| 2026-05-04 17:07 | 34.69738 | -78.42504 | 40112 ft | 407 kts | 223° |
| 2026-05-04 17:07 | 34.64524 | -78.47351 | 40107 ft | 407 kts | 223° |
| 2026-05-04 17:08 | 34.57770 | -78.53617 | 40120 ft | 407 kts | 223° |
| 2026-05-04 17:09 | 34.53262 | -78.57794 | 40120 ft | 407 kts | 223° |
| 2026-05-04 17:09 | 34.48785 | -78.61939 | 40119 ft | 407 kts | 223° |
| 2026-05-04 17:10 | 34.37479 | -78.72246 | 40141 ft | 408 kts | 220° |
| 2026-05-04 17:11 | 34.32786 | -78.76092 | 40101 ft | 409 kts | 219° |
| 2026-05-04 17:12 | 34.25735 | -78.81922 | 40104 ft | 408 kts | 220° |
| 2026-05-04 17:13 | 34.14072 | -78.91628 | 40114 ft | 408 kts | 220° |
| 2026-05-04 17:14 | 34.04723 | -78.99388 | 40127 ft | 408 kts | 220° |
| 2026-05-04 17:15 | 33.97710 | -79.05205 | 40104 ft | 409 kts | 220° |
| 2026-05-04 17:16 | 33.88322 | -79.12977 | 40133 ft | 409 kts | 220° |
| 2026-05-04 17:17 | 33.78937 | -79.20728 | 40129 ft | 410 kts | 220° |
| 2026-05-04 17:18 | 33.69510 | -79.28497 | 40116 ft | 410 kts | 220° |
| 2026-05-04 17:19 | 33.60195 | -79.36312 | 40133 ft | 410 kts | 221° |
| 2026-05-04 17:20 | 33.50871 | -79.44233 | 40140 ft | 410 kts | 221° |
| 2026-05-04 17:20 | 33.43898 | -79.50132 | 40126 ft | 410 kts | 221° |
| 2026-05-04 17:21 | 33.34592 | -79.57985 | 40129 ft | 410 kts | 221° |
| 2026-05-04 17:22 | 33.29933 | -79.61909 | 40131 ft | 410 kts | 221° |
| 2026-05-04 17:23 | 33.20605 | -79.69748 | 40116 ft | 410 kts | 221° |
| 2026-05-04 17:24 | 33.14387 | -79.74962 | 40123 ft | 410 kts | 221° |
| 2026-05-04 17:25 | 33.05069 | -79.82760 | 40132 ft | 410 kts | 221° |
| 2026-05-04 17:26 | 32.95750 | -79.90538 | 40144 ft | 410 kts | 221° |
| 2026-05-04 17:27 | 32.84061 | -80.00266 | 40139 ft | 410 kts | 221° |
| 2026-05-04 17:28 | 32.74724 | -80.08015 | 40103 ft | 409 kts | 221° |
| 2026-05-04 17:29 | 32.60776 | -80.19561 | 40136 ft | 408 kts | 222° |
| 2026-05-04 17:31 | 32.48983 | -80.28878 | 40126 ft | 413 kts | 216° |
| 2026-05-04 17:32 | 32.36214 | -80.36806 | 40139 ft | 413 kts | 216° |
| 2026-05-04 17:33 | 32.26101 | -80.43173 | 40145 ft | 412 kts | 216° |
| 2026-05-04 17:34 | 32.16010 | -80.49528 | 40133 ft | 411 kts | 216° |
| 2026-05-04 17:35 | 32.03414 | -80.57438 | 40131 ft | 410 kts | 217° |
| 2026-05-04 17:36 | 31.98379 | -80.60593 | 40092 ft | 409 kts | 217° |
| 2026-05-04 17:36 | 31.93345 | -80.63742 | 40124 ft | 408 kts | 217° |
| 2026-05-04 17:37 | 31.88323 | -80.66881 | 40129 ft | 408 kts | 217° |
| 2026-05-04 17:37 | 31.83337 | -80.69994 | 40131 ft | 408 kts | 217° |
| 2026-05-04 17:38 | 31.78319 | -80.73123 | 40129 ft | 408 kts | 217° |
| 2026-05-04 17:38 | 31.73283 | -80.76259 | 40090 ft | 408 kts | 217° |
| 2026-05-04 17:39 | 31.65781 | -80.80923 | 40125 ft | 407 kts | 217° |
| 2026-05-04 17:39 | 31.60802 | -80.84015 | 40134 ft | 407 kts | 217° |
| 2026-05-04 17:40 | 31.55775 | -80.87134 | 40129 ft | 407 kts | 217° |
| 2026-05-04 17:40 | 31.50788 | -80.90223 | 40134 ft | 407 kts | 217° |
| 2026-05-04 17:41 | 31.45767 | -80.93331 | 40096 ft | 407 kts | 217° |
| 2026-05-04 17:41 | 31.40774 | -80.96418 | 40118 ft | 407 kts | 217° |
| 2026-05-04 17:42 | 31.35762 | -80.99517 | 40138 ft | 407 kts | 217° |
| 2026-05-04 17:42 | 31.30769 | -81.02598 | 40135 ft | 408 kts | 217° |
| 2026-05-04 17:43 | 31.25503 | -81.05295 | 40140 ft | 423 kts | 205° |
| 2026-05-04 17:43 | 31.19566 | -81.06332 | 40099 ft | 443 kts | 191° |
| 2026-05-04 17:44 | 31.13385 | -81.06413 | 40132 ft | 444 kts | 190° |
| 2026-05-04 17:44 | 31.07229 | -81.06469 | 40132 ft | 444 kts | 191° |
| 2026-05-04 17:45 | 31.01033 | -81.06574 | 40137 ft | 444 kts | 191° |
| 2026-05-04 17:45 | 30.94890 | -81.06702 | 40135 ft | 444 kts | 191° |
| 2026-05-04 17:46 | 30.88702 | -81.06835 | 40133 ft | 444 kts | 191° |
| 2026-05-04 17:46 | 30.82545 | -81.06966 | 40134 ft | 444 kts | 191° |
| 2026-05-04 17:47 | 30.76352 | -81.07098 | 40132 ft | 444 kts | 191° |
| 2026-05-04 17:47 | 30.70196 | -81.07232 | 40135 ft | 444 kts | 191° |
| 2026-05-04 17:48 | 30.63994 | -81.07363 | 40086 ft | 444 kts | 191° |
| 2026-05-04 17:48 | 30.57859 | -81.07600 | 40126 ft | 441 kts | 192° |
| 2026-05-04 17:49 | 30.51773 | -81.07986 | 40136 ft | 440 kts | 193° |
| 2026-05-04 17:49 | 30.45635 | -81.08381 | 40134 ft | 441 kts | 192° |
| 2026-05-04 17:50 | 30.39523 | -81.08756 | 40136 ft | 441 kts | 192° |
| 2026-05-04 17:50 | 30.33418 | -81.09120 | 40135 ft | 441 kts | 192° |
| 2026-05-04 17:51 | 30.27263 | -81.09486 | 40131 ft | 441 kts | 192° |
| 2026-05-04 17:51 | 30.21150 | -81.09849 | 40132 ft | 441 kts | 192° |
| 2026-05-04 17:52 | 30.14993 | -81.10215 | 40136 ft | 441 kts | 192° |
| 2026-05-04 17:52 | 30.08874 | -81.10579 | 40098 ft | 441 kts | 192° |
| 2026-05-04 17:53 | 30.02729 | -81.10943 | 40136 ft | 441 kts | 192° |
| 2026-05-04 17:53 | 29.96646 | -81.11306 | 40149 ft | 441 kts | 192° |
| 2026-05-04 17:54 | 29.90498 | -81.11673 | 40147 ft | 441 kts | 192° |
| 2026-05-04 17:54 | 29.84388 | -81.12038 | 40145 ft | 442 kts | 192° |
| 2026-05-04 17:55 | 29.78261 | -81.12315 | 40134 ft | 444 kts | 189° |
| 2026-05-04 17:55 | 29.72043 | -81.12306 | 40130 ft | 446 kts | 188° |
| 2026-05-04 17:56 | 29.65851 | -81.12317 | 40136 ft | 446 kts | 189° |
| 2026-05-04 17:56 | 29.59670 | -81.12370 | 40134 ft | 446 kts | 189° |
| 2026-05-04 17:57 | 29.56526 | -81.12105 | 40112 ft | 462 kts | 174° |
| 2026-05-04 17:57 | 29.53431 | -81.10897 | 40172 ft | 471 kts | 167° |
| 2026-05-04 17:57 | 29.47329 | -81.08230 | 40138 ft | 471 kts | 167° |
| 2026-05-04 17:58 | 29.41173 | -81.05608 | 40123 ft | 471 kts | 168° |
| 2026-05-04 17:58 | 29.35028 | -81.03055 | 40135 ft | 471 kts | 168° |
| 2026-05-04 17:59 | 29.28875 | -81.00519 | 40126 ft | 471 kts | 168° |
| 2026-05-04 18:00 | 29.19680 | -80.96731 | 40123 ft | 470 kts | 168° |
| 2026-05-04 18:00 | 29.13511 | -80.94192 | 40122 ft | 469 kts | 168° |
| 2026-05-04 18:01 | 29.07392 | -80.91678 | 40133 ft | 469 kts | 168° |
| 2026-05-04 18:01 | 29.01239 | -80.89156 | 40139 ft | 469 kts | 168° |
| 2026-05-04 18:02 | 28.92027 | -80.85378 | 40077 ft | 468 kts | 168° |
| 2026-05-04 18:02 | 28.85935 | -80.82880 | 40099 ft | 467 kts | 168° |
| 2026-05-04 18:03 | 28.79824 | -80.80384 | 40095 ft | 466 kts | 168° |
| 2026-05-04 18:03 | 28.73719 | -80.77901 | 39640 ft | 472 kts | 168° |
| 2026-05-04 18:04 | 28.70621 | -80.76642 | 39146 ft | 470 kts | 168° |
| 2026-05-04 18:04 | 28.67566 | -80.75398 | 38563 ft | 470 kts | 167° |
| 2026-05-04 18:04 | 28.61393 | -80.72886 | 37275 ft | 469 kts | 168° |
| 2026-05-04 18:05 | 28.58330 | -80.71636 | 36688 ft | 467 kts | 168° |
| 2026-05-04 18:05 | 28.55301 | -80.70402 | 36101 ft | 467 kts | 168° |
| 2026-05-04 18:05 | 28.52233 | -80.69155 | 35438 ft | 468 kts | 168° |
| 2026-05-04 18:05 | 28.49196 | -80.67924 | 34803 ft | 470 kts | 169° |
| 2026-05-04 18:06 | 28.42970 | -80.65406 | 33276 ft | 476 kts | 169° |
| 2026-05-04 18:06 | 28.39838 | -80.64140 | 32516 ft | 477 kts | 169° |
| 2026-05-04 18:06 | 28.36743 | -80.62888 | 31893 ft | 476 kts | 168° |
| 2026-05-04 18:07 | 28.33630 | -80.61628 | 31325 ft | 472 kts | 168° |
| 2026-05-04 18:07 | 28.30534 | -80.60377 | 30810 ft | 468 kts | 168° |
| 2026-05-04 18:07 | 28.27501 | -80.59151 | 30302 ft | 465 kts | 168° |
| 2026-05-04 18:07 | 28.24453 | -80.57920 | 29699 ft | 462 kts | 168° |
| 2026-05-04 18:08 | 28.21461 | -80.56709 | 29137 ft | 458 kts | 168° |
| 2026-05-04 18:08 | 28.18470 | -80.55499 | 28582 ft | 453 kts | 168° |
| 2026-05-04 18:08 | 28.15502 | -80.54300 | 28086 ft | 449 kts | 168° |
| 2026-05-04 18:08 | 28.12598 | -80.53131 | 27550 ft | 446 kts | 168° |
| 2026-05-04 18:09 | 28.06765 | -80.50787 | 26516 ft | 439 kts | 167° |
| 2026-05-04 18:09 | 28.01082 | -80.48507 | 25483 ft | 431 kts | 167° |
| 2026-05-04 18:10 | 27.98266 | -80.47380 | 25002 ft | 427 kts | 167° |
| 2026-05-04 18:10 | 27.95464 | -80.46257 | 24504 ft | 424 kts | 167° |
| 2026-05-04 18:10 | 27.92727 | -80.45159 | 24211 ft | 415 kts | 166° |
| 2026-05-04 18:10 | 27.90006 | -80.44065 | 23611 ft | 412 kts | 166° |
| 2026-05-04 18:11 | 27.87355 | -80.42997 | 22991 ft | 404 kts | 166° |
| 2026-05-04 18:11 | 27.84705 | -80.41933 | 22361 ft | 404 kts | 166° |
| 2026-05-04 18:11 | 27.82052 | -80.40871 | 21739 ft | 404 kts | 166° |
| 2026-05-04 18:11 | 27.79398 | -80.39809 | 21146 ft | 403 kts | 166° |
| 2026-05-04 18:12 | 27.77636 | -80.39105 | 20737 ft | 400 kts | 166° |
| 2026-05-04 18:12 | 27.75034 | -80.38063 | 20142 ft | 392 kts | 166° |
| 2026-05-04 18:12 | 27.72479 | -80.37042 | 19548 ft | 386 kts | 166° |
| 2026-05-04 18:12 | 27.69957 | -80.36034 | 18977 ft | 381 kts | 166° |
| 2026-05-04 18:13 | 27.67491 | -80.35048 | 18403 ft | 378 kts | 166° |
| 2026-05-04 18:13 | 27.65028 | -80.34004 | 17774 ft | 375 kts | 162° |
| 2026-05-04 18:13 | 27.60343 | -80.31510 | 16638 ft | 367 kts | 159° |
| 2026-05-04 18:14 | 27.58056 | -80.30254 | 16125 ft | 363 kts | 159° |
| 2026-05-04 18:14 | 27.55795 | -80.29033 | 15636 ft | 363 kts | 159° |
| 2026-05-04 18:14 | 27.53514 | -80.27822 | 15140 ft | 365 kts | 159° |
| 2026-05-04 18:15 | 27.48940 | -80.25407 | 14110 ft | 359 kts | 159° |
| 2026-05-04 18:15 | 27.44521 | -80.23078 | 13279 ft | 353 kts | 158° |
| 2026-05-04 18:15 | 27.42299 | -80.21906 | 12878 ft | 351 kts | 158° |
| 2026-05-04 18:16 | 27.40095 | -80.20746 | 12479 ft | 348 kts | 158° |
| 2026-05-04 18:16 | 27.37894 | -80.19589 | 12100 ft | 346 kts | 158° |
| 2026-05-04 18:16 | 27.35745 | -80.18460 | 11737 ft | 343 kts | 158° |
| 2026-05-04 18:17 | 27.31458 | -80.16211 | 11004 ft | 337 kts | 159° |
| 2026-05-04 18:17 | 27.29353 | -80.15104 | 10639 ft | 326 kts | 159° |
| 2026-05-04 18:17 | 27.25379 | -80.13015 | 9954 ft | 303 kts | 159° |
| 2026-05-04 18:18 | 27.23533 | -80.12102 | 9745 ft | 287 kts | 160° |
| 2026-05-04 18:18 | 27.21683 | -80.11217 | 9255 ft | 285 kts | 160° |
| 2026-05-04 18:18 | 27.19867 | -80.10343 | 8832 ft | 280 kts | 161° |
| 2026-05-04 18:18 | 27.18116 | -80.09501 | 8487 ft | 275 kts | 159° |
| 2026-05-04 18:19 | 27.14612 | -80.07808 | 7807 ft | 272 kts | 159° |
| 2026-05-04 18:19 | 27.12886 | -80.06992 | 7474 ft | 271 kts | 158° |
| 2026-05-04 18:19 | 27.11152 | -80.06143 | 7125 ft | 270 kts | 156° |
| 2026-05-04 18:20 | 27.09436 | -80.05276 | 6822 ft | 270 kts | 155° |
| 2026-05-04 18:20 | 27.07718 | -80.04412 | 6446 ft | 271 kts | 155° |
| 2026-05-04 18:20 | 27.05980 | -80.03552 | 6093 ft | 271 kts | 154° |
| 2026-05-04 18:20 | 27.04275 | -80.02705 | 5760 ft | 271 kts | 154° |
| 2026-05-04 18:21 | 27.02544 | -80.01847 | 5391 ft | 271 kts | 153° |
| 2026-05-04 18:21 | 27.00827 | -80.00999 | 5045 ft | 267 kts | 153° |
| 2026-05-04 18:21 | 26.99134 | -80.00164 | 4727 ft | 264 kts | 153° |
| 2026-05-04 18:21 | 26.97481 | -79.99347 | 4380 ft | 262 kts | 152° |
| 2026-05-04 18:22 | 26.95733 | -79.98829 | 4051 ft | 267 kts | 180° |
| 2026-05-04 18:22 | 26.93898 | -79.99394 | 4070 ft | 281 kts | 204° |
| 2026-05-04 18:22 | 26.92245 | -80.00602 | 4030 ft | 284 kts | 216° |
| 2026-05-04 18:22 | 26.90730 | -80.01972 | 4003 ft | 283 kts | 218° |
| 2026-05-04 18:23 | 26.89254 | -80.03326 | 3991 ft | 276 kts | 218° |
| 2026-05-04 18:23 | 26.87755 | -80.04638 | 3976 ft | 272 kts | 216° |
| 2026-05-04 18:23 | 26.86258 | -80.05929 | 3984 ft | 271 kts | 216° |
| 2026-05-04 18:23 | 26.84783 | -80.07200 | 3983 ft | 269 kts | 216° |
| 2026-05-04 18:24 | 26.83325 | -80.08470 | 3972 ft | 259 kts | 216° |
| 2026-05-04 18:24 | 26.81926 | -80.09690 | 3986 ft | 253 kts | 218° |
| 2026-05-04 18:24 | 26.80816 | -80.11179 | 3971 ft | 246 kts | 251° |
| 2026-05-04 18:24 | 26.80421 | -80.12979 | 3987 ft | 238 kts | 265° |
| 2026-05-04 18:25 | 26.80288 | -80.14818 | 3992 ft | 236 kts | 269° |
| 2026-05-04 18:25 | 26.80178 | -80.16654 | 3993 ft | 236 kts | 268° |
| 2026-05-04 18:25 | 26.80066 | -80.18473 | 3984 ft | 238 kts | 269° |
| 2026-05-04 18:25 | 26.79947 | -80.20317 | 3997 ft | 239 kts | 268° |
| 2026-05-04 18:26 | 26.79809 | -80.22178 | 3987 ft | 239 kts | 269° |
| 2026-05-04 18:26 | 26.79705 | -80.24031 | 3979 ft | 237 kts | 271° |
| 2026-05-04 18:26 | 26.79650 | -80.25846 | 3986 ft | 233 kts | 273° |
| 2026-05-04 18:26 | 26.79606 | -80.27641 | 3987 ft | 228 kts | 266° |
| 2026-05-04 18:27 | 26.79428 | -80.29399 | 3985 ft | 226 kts | 267° |
| 2026-05-04 18:27 | 26.79342 | -80.31139 | 4010 ft | 222 kts | 273° |
| 2026-05-04 18:27 | 26.79267 | -80.32867 | 4011 ft | 223 kts | 263° |
| 2026-05-04 18:27 | 26.79050 | -80.34575 | 3988 ft | 225 kts | 265° |
| 2026-05-04 18:28 | 26.78901 | -80.36323 | 3978 ft | 224 kts | 267° |
| 2026-05-04 18:28 | 26.78857 | -80.38057 | 3990 ft | 221 kts | 273° |
| 2026-05-04 18:28 | 26.78693 | -80.39769 | 3865 ft | 226 kts | 248° |
| 2026-05-04 18:28 | 26.77692 | -80.41098 | 3490 ft | 228 kts | 205° |
| 2026-05-04 18:29 | 26.76183 | -80.41388 | 3345 ft | 217 kts | 171° |
| 2026-05-04 18:29 | 26.74656 | -80.41288 | 3279 ft | 222 kts | 173° |
| 2026-05-04 18:29 | 26.73096 | -80.41199 | 3246 ft | 225 kts | 173° |
| 2026-05-04 18:29 | 26.71545 | -80.41094 | 3179 ft | 226 kts | 167° |
| 2026-05-04 18:30 | 26.69571 | -80.39013 | 3004 ft | 198 kts | 88° |
| 2026-05-04 18:30 | 26.69545 | -80.37493 | 2988 ft | 195 kts | 88° |
| 2026-05-04 18:30 | 26.69463 | -80.36004 | 2980 ft | 192 kts | 88° |
| 2026-05-04 18:31 | 26.69355 | -80.34501 | 3002 ft | 195 kts | 89° |
| 2026-05-04 18:31 | 26.69309 | -80.32975 | 2989 ft | 197 kts | 88° |
| 2026-05-04 18:31 | 26.69241 | -80.31442 | 3003 ft | 198 kts | 88° |
| 2026-05-04 18:31 | 26.69176 | -80.29922 | 3002 ft | 197 kts | 88° |
| 2026-05-04 18:32 | 26.69128 | -80.28393 | 2982 ft | 193 kts | 88° |
| 2026-05-04 18:32 | 26.69044 | -80.26907 | 2832 ft | 188 kts | 88° |
| 2026-05-04 18:32 | 26.68965 | -80.25478 | 2623 ft | 185 kts | 87° |
| 2026-05-04 18:32 | 26.68905 | -80.24038 | 2389 ft | 184 kts | 88° |
| 2026-05-04 18:33 | 26.68843 | -80.22610 | 2140 ft | 184 kts | 89° |
| 2026-05-04 18:33 | 26.68740 | -80.21218 | 1883 ft | 176 kts | 88° |
| 2026-05-04 18:33 | 26.68706 | -80.19882 | 1665 ft | 166 kts | 86° |
| 2026-05-04 18:33 | 26.68661 | -80.18627 | 1453 ft | 156 kts | 88° |
| 2026-05-04 18:34 | 26.68611 | -80.17478 | 1273 ft | 142 kts | 87° |
| 2026-05-04 18:34 | 26.68565 | -80.16410 | 1114 ft | 137 kts | 88° |
| 2026-05-04 18:34 | 26.68516 | -80.15367 | 959 ft | 129 kts | 89° |
| 2026-05-04 18:34 | 26.68472 | -80.14365 | 781 ft | 130 kts | 89° |
| 2026-05-04 18:35 | 26.68436 | -80.13378 | 607 ft | 126 kts | 91° |
| 2026-05-04 18:35 | 26.68381 | -80.12415 | 401 ft | 122 kts | 88° |
| 2026-05-04 18:35 | 26.68356 | -80.11466 | 226 ft | 122 kts | 91° |
| 2026-05-04 18:35 | 26.68309 | -80.10542 | 58 ft | 121 kts | 90° |
| 2026-05-04 18:36 | 26.68277 | -80.09660 | 29 ft | 96 kts | 94° |
| 2026-05-04 18:36 | 26.68252 | -80.09164 | 28 ft | 32 kts | 93° |
| 2026-05-04 18:36 | 26.68243 | -80.08977 | 25 ft | 23 kts | 93° |
| 2026-05-04 18:36 | 26.68264 | -80.08854 | 25 ft | 13 kts | 32° |
| 2026-05-04 18:37 | 26.68333 | -80.08853 | 28 ft | 9 kts | 320° |
| 2026-05-04 18:37 | 26.68348 | -80.08922 | 25 ft | 9 kts | 272° |
| 2026-05-04 18:37 | 26.68351 | -80.08991 | 27 ft | 9 kts | 274° |
| 2026-05-04 18:37 | 26.68353 | -80.09045 | 25 ft | 7 kts | 273° |
| 2026-05-04 18:38 | 26.68355 | -80.09094 | 25 ft | 6 kts | 271° |
| 2026-05-04 18:38 | 26.68357 | -80.09154 | 25 ft | 10 kts | 272° |
| 2026-05-04 18:38 | 26.68361 | -80.09247 | 25 ft | 12 kts | 273° |
| 2026-05-04 18:38 | 26.68380 | -80.09335 | 27 ft | 12 kts | 306° |
| 2026-05-04 18:39 | 26.68437 | -80.09387 | 25 ft | 10 kts | 346° |
| 2026-05-04 18:39 | 26.68488 | -80.09354 | 25 ft | 6 kts | 48° |
| 2026-05-04 18:39 | 26.68494 | -80.09346 | 25 ft | 0 kts | 48° |
| 2026-05-04 18:39 | 26.68503 | -80.09335 | 25 ft | 4 kts | 49° |
| 2026-05-04 18:40 | 26.68527 | -80.09304 | 27 ft | 6 kts | 49° |
| 2026-05-04 18:40 | 26.68553 | -80.09272 | 27 ft | 5 kts | 47° |
| 2026-05-04 18:40 | 26.68579 | -80.09241 | 25 ft | 5 kts | 47° |
| 2026-05-04 18:40 | 26.68604 | -80.09210 | 25 ft | 5 kts | 49° |
| 2026-05-04 18:41 | 26.68627 | -80.09193 | 26 ft | 4 kts | 360° |
| 2026-05-04 18:41 | 26.68652 | -80.09209 | 25 ft | 4 kts | 320° |
| 2026-05-04 18:41 | 26.68673 | -80.09230 | 26 ft | 3 kts | 317° |
| 2026-05-04 18:41 | 26.68683 | -80.09240 | 27 ft | 1 kts | 317° |
| 2026-05-04 18:42 | 26.68684 | -80.09242 | 26 ft | 0 kts | 317° |